sensor_id;sensor_type;location;lat;lon;timestamp;temperature;humidity
48454;DHT22;34261;55.678;12.464;2024-03-22T00:02:11;8.00;99.90
48454;DHT22;34261;55.678;12.464;2024-03-22T00:04:37;8.00;99.90
48454;DHT22;34261;55.678;12.464;2024-03-22T00:07:03;8.00;99.90
48454;DHT22;34261;55.678;12.464;2024-03-22T00:09:30;8.00;99.90
48454;DHT22;34261;55.678;12.464;2024-03-22T00:11:56;8.00;99.90
48454;DHT22;34261;55.678;12.464;2024-03-22T00:14:23;8.00;99.90
48454;DHT22;34261;55.678;12.464;2024-03-22T00:16:48;8.00;99.90
48454;DHT22;34261;55.678;12.464;2024-03-22T00:19:15;7.90;99.90
48454;DHT22;34261;55.678;12.464;2024-03-22T00:21:41;7.90;99.90
48454;DHT22;34261;55.678;12.464;2024-03-22T00:24:07;7.90;99.90
48454;DHT22;34261;55.678;12.464;2024-03-22T00:26:33;7.90;99.90
48454;DHT22;34261;55.678;12.464;2024-03-22T00:29:00;7.90;99.90
48454;DHT22;34261;55.678;12.464;2024-03-22T00:31:26;7.90;99.90
48454;DHT22;34261;55.678;12.464;2024-03-22T00:33:51;7.90;99.90
48454;DHT22;34261;55.678;12.464;2024-03-22T00:36:17;7.80;99.90
48454;DHT22;34261;55.678;12.464;2024-03-22T00:38:43;7.80;99.90
48454;DHT22;34261;55.678;12.464;2024-03-22T00:41:09;7.80;99.90
48454;DHT22;34261;55.678;12.464;2024-03-22T00:43:35;7.80;99.90
48454;DHT22;34261;55.678;12.464;2024-03-22T00:46:02;7.90;99.90
48454;DHT22;34261;55.678;12.464;2024-03-22T00:48:41;7.90;99.90
48454;DHT22;34261;55.678;12.464;2024-03-22T00:51:14;7.90;99.90
48454;DHT22;34261;55.678;12.464;2024-03-22T00:53:40;7.90;99.90
48454;DHT22;34261;55.678;12.464;2024-03-22T00:56:07;7.90;99.90
48454;DHT22;34261;55.678;12.464;2024-03-22T00:58:33;7.90;99.90
48454;DHT22;34261;55.678;12.464;2024-03-22T01:00:59;7.90;99.90
48454;DHT22;34261;55.678;12.464;2024-03-22T01:03:27;7.80;99.90
48454;DHT22;34261;55.678;12.464;2024-03-22T01:06:02;7.80;99.90
48454;DHT22;34261;55.678;12.464;2024-03-22T01:08:28;7.80;99.90
48454;DHT22;34261;55.678;12.464;2024-03-22T01:10:55;7.90;99.90
48454;DHT22;34261;55.678;12.464;2024-03-22T01:13:21;7.90;99.90
48454;DHT22;34261;55.678;12.464;2024-03-22T01:15:48;7.90;99.90
48454;DHT22;34261;55.678;12.464;2024-03-22T01:18:14;7.90;99.90
48454;DHT22;34261;55.678;12.464;2024-03-22T01:20:43;7.90;99.90
48454;DHT22;34261;55.678;12.464;2024-03-22T01:23:16;7.90;99.90
48454;DHT22;34261;55.678;12.464;2024-03-22T01:25:50;7.80;99.90
48454;DHT22;34261;55.678;12.464;2024-03-22T01:28:24;7.90;99.90
48454;DHT22;34261;55.678;12.464;2024-03-22T01:31:23;7.90;99.90
48454;DHT22;34261;55.678;12.464;2024-03-22T01:34:01;7.90;99.90
48454;DHT22;34261;55.678;12.464;2024-03-22T01:36:27;7.90;99.90
48454;DHT22;34261;55.678;12.464;2024-03-22T01:38:54;7.90;99.90
48454;DHT22;34261;55.678;12.464;2024-03-22T01:41:31;7.90;99.90
48454;DHT22;34261;55.678;12.464;2024-03-22T01:43:57;7.90;99.90
48454;DHT22;34261;55.678;12.464;2024-03-22T01:46:40;7.90;99.90
48454;DHT22;34261;55.678;12.464;2024-03-22T01:49:10;7.90;99.90
48454;DHT22;34261;55.678;12.464;2024-03-22T01:51:45;7.90;99.90
48454;DHT22;34261;55.678;12.464;2024-03-22T01:54:15;7.90;99.90
48454;DHT22;34261;55.678;12.464;2024-03-22T01:56:45;7.90;99.90
48454;DHT22;34261;55.678;12.464;2024-03-22T01:59:11;8.00;99.90
48454;DHT22;34261;55.678;12.464;2024-03-22T02:01:41;8.00;99.90
48454;DHT22;34261;55.678;12.464;2024-03-22T02:04:28;8.00;99.90
48454;DHT22;34261;55.678;12.464;2024-03-22T02:06:55;8.00;99.90
48454;DHT22;34261;55.678;12.464;2024-03-22T02:09:20;8.10;99.90
48454;DHT22;34261;55.678;12.464;2024-03-22T02:11:48;8.10;99.90
48454;DHT22;34261;55.678;12.464;2024-03-22T02:14:15;8.10;99.90
48454;DHT22;34261;55.678;12.464;2024-03-22T02:16:44;8.10;99.90
48454;DHT22;34261;55.678;12.464;2024-03-22T02:19:46;8.10;99.90
48454;DHT22;34261;55.678;12.464;2024-03-22T02:22:39;8.10;99.90
48454;DHT22;34261;55.678;12.464;2024-03-22T02:25:28;8.10;99.90
48454;DHT22;34261;55.678;12.464;2024-03-22T02:27:59;8.10;99.90
48454;DHT22;34261;55.678;12.464;2024-03-22T02:30:26;8.10;99.90
48454;DHT22;34261;55.678;12.464;2024-03-22T02:32:52;8.20;99.90
48454;DHT22;34261;55.678;12.464;2024-03-22T02:35:21;8.20;99.90
48454;DHT22;34261;55.678;12.464;2024-03-22T02:37:46;8.10;99.90
48454;DHT22;34261;55.678;12.464;2024-03-22T02:40:13;8.10;99.90
48454;DHT22;34261;55.678;12.464;2024-03-22T02:42:41;8.10;99.90
48454;DHT22;34261;55.678;12.464;2024-03-22T02:45:06;8.10;99.90
48454;DHT22;34261;55.678;12.464;2024-03-22T02:47:36;8.10;99.90
48454;DHT22;34261;55.678;12.464;2024-03-22T02:50:07;8.00;99.90
48454;DHT22;34261;55.678;12.464;2024-03-22T02:52:34;8.10;99.90
48454;DHT22;34261;55.678;12.464;2024-03-22T02:55:00;8.00;99.90
48454;DHT22;34261;55.678;12.464;2024-03-22T02:57:26;8.10;99.90
48454;DHT22;34261;55.678;12.464;2024-03-22T02:59:51;8.10;99.90
48454;DHT22;34261;55.678;12.464;2024-03-22T03:02:17;8.10;99.90
48454;DHT22;34261;55.678;12.464;2024-03-22T03:04:47;8.10;99.90
48454;DHT22;34261;55.678;12.464;2024-03-22T03:07:15;8.10;99.90
48454;DHT22;34261;55.678;12.464;2024-03-22T03:09:50;8.10;99.90
48454;DHT22;34261;55.678;12.464;2024-03-22T03:12:17;8.10;99.90
48454;DHT22;34261;55.678;12.464;2024-03-22T03:14:44;8.10;99.90
48454;DHT22;34261;55.678;12.464;2024-03-22T03:17:10;8.20;99.90
48454;DHT22;34261;55.678;12.464;2024-03-22T03:19:37;8.20;99.90
48454;DHT22;34261;55.678;12.464;2024-03-22T03:22:03;8.20;99.90
48454;DHT22;34261;55.678;12.464;2024-03-22T03:24:30;8.30;99.90
48454;DHT22;34261;55.678;12.464;2024-03-22T03:26:57;8.30;99.90
48454;DHT22;34261;55.678;12.464;2024-03-22T03:29:26;8.20;99.90
48454;DHT22;34261;55.678;12.464;2024-03-22T03:31:52;8.20;99.90
48454;DHT22;34261;55.678;12.464;2024-03-22T03:34:18;8.30;99.90
48454;DHT22;34261;55.678;12.464;2024-03-22T03:36:45;8.30;99.90
48454;DHT22;34261;55.678;12.464;2024-03-22T03:39:12;8.30;99.90
48454;DHT22;34261;55.678;12.464;2024-03-22T03:41:40;8.40;99.90
48454;DHT22;34261;55.678;12.464;2024-03-22T03:44:15;8.30;99.90
48454;DHT22;34261;55.678;12.464;2024-03-22T03:46:41;8.30;99.90
48454;DHT22;34261;55.678;12.464;2024-03-22T03:49:07;8.40;99.90
48454;DHT22;34261;55.678;12.464;2024-03-22T03:51:33;8.30;99.90
48454;DHT22;34261;55.678;12.464;2024-03-22T03:54:02;8.40;99.90
48454;DHT22;34261;55.678;12.464;2024-03-22T03:56:28;8.40;99.90
48454;DHT22;34261;55.678;12.464;2024-03-22T03:58:57;8.40;99.90
48454;DHT22;34261;55.678;12.464;2024-03-22T04:01:22;8.40;99.90
48454;DHT22;34261;55.678;12.464;2024-03-22T04:03:49;8.40;99.90
48454;DHT22;34261;55.678;12.464;2024-03-22T04:06:16;8.40;99.90
48454;DHT22;34261;55.678;12.464;2024-03-22T04:08:46;8.40;99.90
48454;DHT22;34261;55.678;12.464;2024-03-22T04:11:12;8.40;99.90
48454;DHT22;34261;55.678;12.464;2024-03-22T04:13:40;8.40;99.90
48454;DHT22;34261;55.678;12.464;2024-03-22T04:16:06;8.40;99.90
48454;DHT22;34261;55.678;12.464;2024-03-22T04:18:31;8.40;99.90
48454;DHT22;34261;55.678;12.464;2024-03-22T04:21:00;8.50;99.90
48454;DHT22;34261;55.678;12.464;2024-03-22T04:23:27;8.50;99.90
48454;DHT22;34261;55.678;12.464;2024-03-22T04:26:02;8.50;99.90
48454;DHT22;34261;55.678;12.464;2024-03-22T04:28:29;8.50;99.90
48454;DHT22;34261;55.678;12.464;2024-03-22T04:30:59;8.50;99.90
48454;DHT22;34261;55.678;12.464;2024-03-22T04:33:25;8.60;99.90
48454;DHT22;34261;55.678;12.464;2024-03-22T04:35:51;8.60;99.90
48454;DHT22;34261;55.678;12.464;2024-03-22T04:38:17;8.50;99.90
48454;DHT22;34261;55.678;12.464;2024-03-22T04:40:42;8.50;99.90
48454;DHT22;34261;55.678;12.464;2024-03-22T04:43:14;8.50;99.90
48454;DHT22;34261;55.678;12.464;2024-03-22T04:45:41;8.50;99.90
48454;DHT22;34261;55.678;12.464;2024-03-22T04:48:09;8.60;99.90
48454;DHT22;34261;55.678;12.464;2024-03-22T04:50:39;8.60;99.90
48454;DHT22;34261;55.678;12.464;2024-03-22T04:53:04;8.60;99.90
48454;DHT22;34261;55.678;12.464;2024-03-22T04:55:33;8.60;99.90
48454;DHT22;34261;55.678;12.464;2024-03-22T04:57:59;8.50;99.90
48454;DHT22;34261;55.678;12.464;2024-03-22T05:00:28;8.60;99.90
48454;DHT22;34261;55.678;12.464;2024-03-22T05:02:53;8.60;99.90
48454;DHT22;34261;55.678;12.464;2024-03-22T05:05:19;8.70;99.90
48454;DHT22;34261;55.678;12.464;2024-03-22T05:07:47;8.70;99.90
48454;DHT22;34261;55.678;12.464;2024-03-22T05:10:16;8.70;99.90
48454;DHT22;34261;55.678;12.464;2024-03-22T05:12:45;8.70;99.90
48454;DHT22;34261;55.678;12.464;2024-03-22T05:15:10;8.70;99.90
48454;DHT22;34261;55.678;12.464;2024-03-22T05:17:36;8.60;99.90
48454;DHT22;34261;55.678;12.464;2024-03-22T05:20:07;8.70;99.90
48454;DHT22;34261;55.678;12.464;2024-03-22T05:22:39;8.70;99.90
48454;DHT22;34261;55.678;12.464;2024-03-22T05:25:08;8.70;99.90
48454;DHT22;34261;55.678;12.464;2024-03-22T05:27:34;8.80;99.90
48454;DHT22;34261;55.678;12.464;2024-03-22T05:29:59;8.80;99.90
48454;DHT22;34261;55.678;12.464;2024-03-22T05:32:25;8.80;99.90
48454;DHT22;34261;55.678;12.464;2024-03-22T05:34:51;8.80;99.90
48454;DHT22;34261;55.678;12.464;2024-03-22T05:37:25;8.80;99.90
48454;DHT22;34261;55.678;12.464;2024-03-22T05:39:50;8.80;99.90
48454;DHT22;34261;55.678;12.464;2024-03-22T05:42:17;8.80;99.90
48454;DHT22;34261;55.678;12.464;2024-03-22T05:44:44;8.80;99.90
48454;DHT22;34261;55.678;12.464;2024-03-22T05:47:10;8.90;99.90
48454;DHT22;34261;55.678;12.464;2024-03-22T05:49:46;8.90;99.90
48454;DHT22;34261;55.678;12.464;2024-03-22T05:52:11;8.90;99.90
48454;DHT22;34261;55.678;12.464;2024-03-22T05:54:37;8.90;99.90
48454;DHT22;34261;55.678;12.464;2024-03-22T05:57:03;8.90;99.90
48454;DHT22;34261;55.678;12.464;2024-03-22T05:59:31;8.90;99.90
48454;DHT22;34261;55.678;12.464;2024-03-22T06:01:59;8.90;99.90
48454;DHT22;34261;55.678;12.464;2024-03-22T06:04:24;8.80;99.90
48454;DHT22;34261;55.678;12.464;2024-03-22T06:06:50;8.80;99.90
48454;DHT22;34261;55.678;12.464;2024-03-22T06:09:16;8.80;99.90
48454;DHT22;34261;55.678;12.464;2024-03-22T06:11:52;8.80;99.90
48454;DHT22;34261;55.678;12.464;2024-03-22T06:14:17;8.90;99.90
48454;DHT22;34261;55.678;12.464;2024-03-22T06:16:46;8.90;99.90
48454;DHT22;34261;55.678;12.464;2024-03-22T06:19:15;8.90;99.90
48454;DHT22;34261;55.678;12.464;2024-03-22T06:21:40;8.90;99.90
48454;DHT22;34261;55.678;12.464;2024-03-22T06:24:06;8.90;99.90
48454;DHT22;34261;55.678;12.464;2024-03-22T06:26:31;8.90;99.90
48454;DHT22;34261;55.678;12.464;2024-03-22T06:28:57;9.00;99.90
48454;DHT22;34261;55.678;12.464;2024-03-22T06:31:22;9.00;99.90
48454;DHT22;34261;55.678;12.464;2024-03-22T06:33:51;9.00;99.90
48454;DHT22;34261;55.678;12.464;2024-03-22T06:36:17;9.00;99.90
48454;DHT22;34261;55.678;12.464;2024-03-22T06:38:44;9.00;99.90
48454;DHT22;34261;55.678;12.464;2024-03-22T06:41:11;9.00;99.90
48454;DHT22;34261;55.678;12.464;2024-03-22T06:43:37;9.00;99.90
48454;DHT22;34261;55.678;12.464;2024-03-22T06:46:02;9.00;99.90
48454;DHT22;34261;55.678;12.464;2024-03-22T06:48:29;9.00;99.90
48454;DHT22;34261;55.678;12.464;2024-03-22T06:50:55;9.00;99.90
48454;DHT22;34261;55.678;12.464;2024-03-22T06:53:21;9.00;99.90
48454;DHT22;34261;55.678;12.464;2024-03-22T06:55:48;9.00;99.90
48454;DHT22;34261;55.678;12.464;2024-03-22T06:58:14;9.00;99.90
48454;DHT22;34261;55.678;12.464;2024-03-22T07:00:39;9.10;99.90
48454;DHT22;34261;55.678;12.464;2024-03-22T07:03:07;9.00;99.90
48454;DHT22;34261;55.678;12.464;2024-03-22T07:05:34;9.10;99.90
48454;DHT22;34261;55.678;12.464;2024-03-22T07:08:03;9.10;99.90
48454;DHT22;34261;55.678;12.464;2024-03-22T07:10:29;9.20;99.90
48454;DHT22;34261;55.678;12.464;2024-03-22T07:12:56;9.20;99.90
48454;DHT22;34261;55.678;12.464;2024-03-22T07:15:25;9.10;99.90
48454;DHT22;34261;55.678;12.464;2024-03-22T07:17:51;9.20;99.90
48454;DHT22;34261;55.678;12.464;2024-03-22T07:20:17;9.20;99.90
48454;DHT22;34261;55.678;12.464;2024-03-22T07:22:43;9.20;99.90
48454;DHT22;34261;55.678;12.464;2024-03-22T07:25:09;9.30;99.90
48454;DHT22;34261;55.678;12.464;2024-03-22T07:27:37;9.30;99.90
48454;DHT22;34261;55.678;12.464;2024-03-22T07:30:03;9.30;99.90
48454;DHT22;34261;55.678;12.464;2024-03-22T07:32:29;9.40;99.90
48454;DHT22;34261;55.678;12.464;2024-03-22T07:34:55;9.30;99.90
48454;DHT22;34261;55.678;12.464;2024-03-22T07:37:21;9.40;99.90
48454;DHT22;34261;55.678;12.464;2024-03-22T07:39:47;9.40;99.90
48454;DHT22;34261;55.678;12.464;2024-03-22T07:42:13;9.40;99.90
48454;DHT22;34261;55.678;12.464;2024-03-22T07:44:38;9.40;99.90
48454;DHT22;34261;55.678;12.464;2024-03-22T07:47:04;9.40;99.90
48454;DHT22;34261;55.678;12.464;2024-03-22T07:49:29;9.40;99.90
48454;DHT22;34261;55.678;12.464;2024-03-22T07:51:56;9.40;99.90
48454;DHT22;34261;55.678;12.464;2024-03-22T07:54:22;9.40;99.90
48454;DHT22;34261;55.678;12.464;2024-03-22T07:56:48;9.50;99.90
48454;DHT22;34261;55.678;12.464;2024-03-22T07:59:13;9.50;99.90
48454;DHT22;34261;55.678;12.464;2024-03-22T08:01:39;9.60;99.90
48454;DHT22;34261;55.678;12.464;2024-03-22T08:04:05;9.60;99.90
48454;DHT22;34261;55.678;12.464;2024-03-22T08:06:31;9.60;99.90
48454;DHT22;34261;55.678;12.464;2024-03-22T08:08:59;9.60;99.90
48454;DHT22;34261;55.678;12.464;2024-03-22T08:11:24;9.60;99.90
48454;DHT22;34261;55.678;12.464;2024-03-22T08:13:50;9.60;99.90
48454;DHT22;34261;55.678;12.464;2024-03-22T08:16:16;9.70;99.90
48454;DHT22;34261;55.678;12.464;2024-03-22T08:18:43;9.60;99.90
48454;DHT22;34261;55.678;12.464;2024-03-22T08:21:08;9.70;99.90
48454;DHT22;34261;55.678;12.464;2024-03-22T08:23:34;9.70;99.90
48454;DHT22;34261;55.678;12.464;2024-03-22T08:25:59;9.70;99.90
48454;DHT22;34261;55.678;12.464;2024-03-22T08:28:27;9.80;99.90
48454;DHT22;34261;55.678;12.464;2024-03-22T08:30:53;9.80;99.90
48454;DHT22;34261;55.678;12.464;2024-03-22T08:33:18;9.80;99.90
48454;DHT22;34261;55.678;12.464;2024-03-22T08:35:44;9.90;99.90
48454;DHT22;34261;55.678;12.464;2024-03-22T08:38:10;9.90;99.90
48454;DHT22;34261;55.678;12.464;2024-03-22T08:40:38;9.90;99.90
48454;DHT22;34261;55.678;12.464;2024-03-22T08:43:05;9.90;99.90
48454;DHT22;34261;55.678;12.464;2024-03-22T08:45:30;10.00;99.90
48454;DHT22;34261;55.678;12.464;2024-03-22T08:47:56;9.90;99.90
48454;DHT22;34261;55.678;12.464;2024-03-22T08:50:21;9.90;99.90
48454;DHT22;34261;55.678;12.464;2024-03-22T08:52:47;10.00;99.90
48454;DHT22;34261;55.678;12.464;2024-03-22T08:55:13;10.00;99.90
48454;DHT22;34261;55.678;12.464;2024-03-22T08:57:38;10.10;99.90
48454;DHT22;34261;55.678;12.464;2024-03-22T09:00:04;10.20;99.90
48454;DHT22;34261;55.678;12.464;2024-03-22T09:02:29;10.30;99.90
48454;DHT22;34261;55.678;12.464;2024-03-22T09:04:55;10.40;99.90
48454;DHT22;34261;55.678;12.464;2024-03-22T09:07:22;10.30;99.90
48454;DHT22;34261;55.678;12.464;2024-03-22T09:09:48;10.30;99.90
48454;DHT22;34261;55.678;12.464;2024-03-22T09:12:14;10.30;99.90
48454;DHT22;34261;55.678;12.464;2024-03-22T09:14:40;10.40;99.90
48454;DHT22;34261;55.678;12.464;2024-03-22T09:17:05;10.40;99.90
48454;DHT22;34261;55.678;12.464;2024-03-22T09:19:32;10.50;99.90
48454;DHT22;34261;55.678;12.464;2024-03-22T09:21:57;10.50;99.90
48454;DHT22;34261;55.678;12.464;2024-03-22T09:24:23;10.60;99.90
48454;DHT22;34261;55.678;12.464;2024-03-22T09:26:49;10.60;99.90
48454;DHT22;34261;55.678;12.464;2024-03-22T09:29:16;10.70;99.90
48454;DHT22;34261;55.678;12.464;2024-03-22T09:31:41;10.60;99.90
48454;DHT22;34261;55.678;12.464;2024-03-22T09:34:07;10.50;99.90
48454;DHT22;34261;55.678;12.464;2024-03-22T09:36:32;10.60;99.90
48454;DHT22;34261;55.678;12.464;2024-03-22T09:39:01;10.60;99.90
48454;DHT22;34261;55.678;12.464;2024-03-22T09:41:28;10.60;99.90
48454;DHT22;34261;55.678;12.464;2024-03-22T09:44:20;10.70;99.90
48454;DHT22;34261;55.678;12.464;2024-03-22T09:46:47;10.70;99.90
48454;DHT22;34261;55.678;12.464;2024-03-22T09:49:13;10.70;99.90
48454;DHT22;34261;55.678;12.464;2024-03-22T09:51:39;10.70;99.90
48454;DHT22;34261;55.678;12.464;2024-03-22T09:54:05;10.60;99.90
48454;DHT22;34261;55.678;12.464;2024-03-22T09:56:32;10.60;99.90
48454;DHT22;34261;55.678;12.464;2024-03-22T09:58:58;10.60;99.90
48454;DHT22;34261;55.678;12.464;2024-03-22T10:01:25;10.70;99.90
48454;DHT22;34261;55.678;12.464;2024-03-22T10:03:53;10.70;99.90
48454;DHT22;34261;55.678;12.464;2024-03-22T10:06:20;10.70;99.90
48454;DHT22;34261;55.678;12.464;2024-03-22T10:08:45;10.70;99.90
48454;DHT22;34261;55.678;12.464;2024-03-22T10:11:16;10.60;99.90
48454;DHT22;34261;55.678;12.464;2024-03-22T10:13:42;10.70;99.90
48454;DHT22;34261;55.678;12.464;2024-03-22T10:16:07;10.70;99.90
48454;DHT22;34261;55.678;12.464;2024-03-22T10:18:33;10.70;99.90
48454;DHT22;34261;55.678;12.464;2024-03-22T10:21:00;10.80;99.90
48454;DHT22;34261;55.678;12.464;2024-03-22T10:23:26;10.90;99.90
48454;DHT22;34261;55.678;12.464;2024-03-22T10:25:52;11.00;99.90
48454;DHT22;34261;55.678;12.464;2024-03-22T10:28:18;10.90;99.90
48454;DHT22;34261;55.678;12.464;2024-03-22T10:30:44;11.10;99.90
48454;DHT22;34261;55.678;12.464;2024-03-22T10:33:10;11.20;99.90
48454;DHT22;34261;55.678;12.464;2024-03-22T10:35:36;11.30;99.90
48454;DHT22;34261;55.678;12.464;2024-03-22T10:38:03;11.40;99.90
48454;DHT22;34261;55.678;12.464;2024-03-22T10:40:28;11.30;99.90
48454;DHT22;34261;55.678;12.464;2024-03-22T10:42:54;11.40;99.90
48454;DHT22;34261;55.678;12.464;2024-03-22T10:45:20;11.40;99.90
48454;DHT22;34261;55.678;12.464;2024-03-22T10:47:50;11.30;99.90
48454;DHT22;34261;55.678;12.464;2024-03-22T10:50:19;11.30;99.90
48454;DHT22;34261;55.678;12.464;2024-03-22T10:52:46;11.40;99.90
48454;DHT22;34261;55.678;12.464;2024-03-22T10:55:15;11.30;99.90
48454;DHT22;34261;55.678;12.464;2024-03-22T10:57:44;11.30;99.90
48454;DHT22;34261;55.678;12.464;2024-03-22T11:00:10;11.40;99.90
48454;DHT22;34261;55.678;12.464;2024-03-22T11:02:36;11.40;99.90
48454;DHT22;34261;55.678;12.464;2024-03-22T11:05:03;11.40;99.90
48454;DHT22;34261;55.678;12.464;2024-03-22T11:07:29;11.30;99.90
48454;DHT22;34261;55.678;12.464;2024-03-22T11:10:00;11.30;99.90
48454;DHT22;34261;55.678;12.464;2024-03-22T11:12:26;11.30;99.90
48454;DHT22;34261;55.678;12.464;2024-03-22T11:14:53;11.30;99.90
48454;DHT22;34261;55.678;12.464;2024-03-22T11:17:19;11.20;99.90
48454;DHT22;34261;55.678;12.464;2024-03-22T11:19:44;11.20;99.90
48454;DHT22;34261;55.678;12.464;2024-03-22T11:22:10;11.10;99.90
48454;DHT22;34261;55.678;12.464;2024-03-22T11:24:37;11.20;99.90
48454;DHT22;34261;55.678;12.464;2024-03-22T11:27:03;11.10;99.90
48454;DHT22;34261;55.678;12.464;2024-03-22T11:29:29;11.20;99.90
48454;DHT22;34261;55.678;12.464;2024-03-22T11:31:55;11.20;99.90
48454;DHT22;34261;55.678;12.464;2024-03-22T11:34:23;11.10;99.90
48454;DHT22;34261;55.678;12.464;2024-03-22T11:36:48;11.10;99.90
48454;DHT22;34261;55.678;12.464;2024-03-22T11:39:16;11.10;99.90
48454;DHT22;34261;55.678;12.464;2024-03-22T11:41:43;11.10;99.90
48454;DHT22;34261;55.678;12.464;2024-03-22T11:44:08;11.10;99.90
48454;DHT22;34261;55.678;12.464;2024-03-22T11:46:34;11.10;99.90
48454;DHT22;34261;55.678;12.464;2024-03-22T11:49:00;11.10;99.90
48454;DHT22;34261;55.678;12.464;2024-03-22T11:51:26;11.10;99.90
48454;DHT22;34261;55.678;12.464;2024-03-22T11:53:54;11.20;99.90
48454;DHT22;34261;55.678;12.464;2024-03-22T11:56:21;11.20;99.90
48454;DHT22;34261;55.678;12.464;2024-03-22T11:58:47;11.10;99.90
48454;DHT22;34261;55.678;12.464;2024-03-22T12:01:16;11.10;99.90
48454;DHT22;34261;55.678;12.464;2024-03-22T12:03:46;11.10;99.90
48454;DHT22;34261;55.678;12.464;2024-03-22T12:06:12;11.10;99.90
48454;DHT22;34261;55.678;12.464;2024-03-22T12:08:38;11.10;99.90
48454;DHT22;34261;55.678;12.464;2024-03-22T12:11:08;11.00;99.90
48454;DHT22;34261;55.678;12.464;2024-03-22T12:13:34;11.10;99.90
48454;DHT22;34261;55.678;12.464;2024-03-22T12:16:00;11.10;99.90
48454;DHT22;34261;55.678;12.464;2024-03-22T12:18:27;11.10;99.90
48454;DHT22;34261;55.678;12.464;2024-03-22T12:20:53;11.20;99.90
48454;DHT22;34261;55.678;12.464;2024-03-22T12:23:24;11.20;99.90
48454;DHT22;34261;55.678;12.464;2024-03-22T12:25:50;11.10;99.90
48454;DHT22;34261;55.678;12.464;2024-03-22T12:28:16;11.20;99.90
48454;DHT22;34261;55.678;12.464;2024-03-22T12:30:42;11.20;99.90
48454;DHT22;34261;55.678;12.464;2024-03-22T12:33:08;11.20;99.90
48454;DHT22;34261;55.678;12.464;2024-03-22T12:35:36;11.30;99.90
48454;DHT22;34261;55.678;12.464;2024-03-22T12:38:04;11.20;99.90
48454;DHT22;34261;55.678;12.464;2024-03-22T12:40:48;11.20;99.90
48454;DHT22;34261;55.678;12.464;2024-03-22T12:43:23;11.10;99.90
48454;DHT22;34261;55.678;12.464;2024-03-22T12:45:49;11.10;99.90
48454;DHT22;34261;55.678;12.464;2024-03-22T12:48:15;11.20;99.90
48454;DHT22;34261;55.678;12.464;2024-03-22T12:50:41;11.20;99.90
48454;DHT22;34261;55.678;12.464;2024-03-22T12:53:09;11.20;99.90
48454;DHT22;34261;55.678;12.464;2024-03-22T12:58:38;11.00;99.90
48454;DHT22;34261;55.678;12.464;2024-03-22T13:01:10;10.90;99.90
48454;DHT22;34261;55.678;12.464;2024-03-22T13:03:39;10.70;99.90
48454;DHT22;34261;55.678;12.464;2024-03-22T13:06:10;10.50;99.90
48454;DHT22;34261;55.678;12.464;2024-03-22T13:08:35;10.50;99.90
48454;DHT22;34261;55.678;12.464;2024-03-22T13:11:03;10.50;99.90
48454;DHT22;34261;55.678;12.464;2024-03-22T13:13:29;10.50;99.90
48454;DHT22;34261;55.678;12.464;2024-03-22T13:15:58;10.60;99.90
48454;DHT22;34261;55.678;12.464;2024-03-22T13:18:30;10.60;99.90
48454;DHT22;34261;55.678;12.464;2024-03-22T13:20:57;10.60;99.90
48454;DHT22;34261;55.678;12.464;2024-03-22T13:23:26;10.70;99.90
48454;DHT22;34261;55.678;12.464;2024-03-22T13:25:52;10.60;99.90
48454;DHT22;34261;55.678;12.464;2024-03-22T13:28:20;10.70;99.90
48454;DHT22;34261;55.678;12.464;2024-03-22T13:30:49;10.80;99.90
48454;DHT22;34261;55.678;12.464;2024-03-22T13:33:16;10.80;99.90
48454;DHT22;34261;55.678;12.464;2024-03-22T13:35:43;11.10;99.90
48454;DHT22;34261;55.678;12.464;2024-03-22T13:38:10;11.20;99.90
48454;DHT22;34261;55.678;12.464;2024-03-22T13:40:39;11.20;99.90
48454;DHT22;34261;55.678;12.464;2024-03-22T13:43:10;11.40;99.90
48454;DHT22;34261;55.678;12.464;2024-03-22T13:45:39;11.40;99.90
48454;DHT22;34261;55.678;12.464;2024-03-22T13:48:09;11.50;99.90
48454;DHT22;34261;55.678;12.464;2024-03-22T13:50:37;11.50;99.90
48454;DHT22;34261;55.678;12.464;2024-03-22T13:53:04;11.50;99.90
48454;DHT22;34261;55.678;12.464;2024-03-22T13:55:31;11.70;99.90
48454;DHT22;34261;55.678;12.464;2024-03-22T13:58:01;12.00;99.90
48454;DHT22;34261;55.678;12.464;2024-03-22T14:00:40;12.60;99.90
48454;DHT22;34261;55.678;12.464;2024-03-22T14:03:38;13.10;99.90
48454;DHT22;34261;55.678;12.464;2024-03-22T14:06:46;12.70;99.90
48454;DHT22;34261;55.678;12.464;2024-03-22T14:09:21;12.80;99.90
48454;DHT22;34261;55.678;12.464;2024-03-22T14:14:56;13.00;99.90
48454;DHT22;34261;55.678;12.464;2024-03-22T14:17:22;13.60;99.90
48454;DHT22;34261;55.678;12.464;2024-03-22T14:19:47;13.50;99.90
48454;DHT22;34261;55.678;12.464;2024-03-22T14:22:14;13.60;99.90
48454;DHT22;34261;55.678;12.464;2024-03-22T14:24:40;13.40;99.90
48454;DHT22;34261;55.678;12.464;2024-03-22T14:27:06;13.20;99.90
48454;DHT22;34261;55.678;12.464;2024-03-22T14:29:41;12.70;99.90
48454;DHT22;34261;55.678;12.464;2024-03-22T14:32:08;12.50;99.90
48454;DHT22;34261;55.678;12.464;2024-03-22T14:34:37;12.40;99.90
48454;DHT22;34261;55.678;12.464;2024-03-22T14:37:03;12.80;99.90
48454;DHT22;34261;55.678;12.464;2024-03-22T14:39:29;13.10;99.90
48454;DHT22;34261;55.678;12.464;2024-03-22T14:41:54;13.20;99.90
48454;DHT22;34261;55.678;12.464;2024-03-22T14:44:20;13.10;99.90
48454;DHT22;34261;55.678;12.464;2024-03-22T14:46:46;13.10;99.90
48454;DHT22;34261;55.678;12.464;2024-03-22T14:49:12;13.10;99.90
48454;DHT22;34261;55.678;12.464;2024-03-22T14:51:37;13.30;99.90
48454;DHT22;34261;55.678;12.464;2024-03-22T14:54:03;13.60;99.90
48454;DHT22;34261;55.678;12.464;2024-03-22T14:56:30;13.50;99.90
48454;DHT22;34261;55.678;12.464;2024-03-22T14:58:55;13.60;99.90
48454;DHT22;34261;55.678;12.464;2024-03-22T15:01:22;13.30;99.90
48454;DHT22;34261;55.678;12.464;2024-03-22T15:03:48;13.20;99.90
48454;DHT22;34261;55.678;12.464;2024-03-22T15:06:20;13.00;99.90
48454;DHT22;34261;55.678;12.464;2024-03-22T15:08:49;12.80;99.90
48454;DHT22;34261;55.678;12.464;2024-03-22T15:11:15;12.60;99.90
48454;DHT22;34261;55.678;12.464;2024-03-22T15:13:42;12.50;99.90
48454;DHT22;34261;55.678;12.464;2024-03-22T15:16:07;12.30;99.90
48454;DHT22;34261;55.678;12.464;2024-03-22T15:18:34;12.30;99.90
48454;DHT22;34261;55.678;12.464;2024-03-22T15:21:04;12.20;99.90
48454;DHT22;34261;55.678;12.464;2024-03-22T15:23:30;12.00;99.90
48454;DHT22;34261;55.678;12.464;2024-03-22T15:25:59;12.00;99.90
48454;DHT22;34261;55.678;12.464;2024-03-22T15:28:34;12.00;99.90
48454;DHT22;34261;55.678;12.464;2024-03-22T15:31:23;12.10;99.90
48454;DHT22;34261;55.678;12.464;2024-03-22T15:37:13;12.10;99.90
48454;DHT22;34261;55.678;12.464;2024-03-22T15:40:00;12.00;99.90